sensor_id;sensor_type;location;lat;lon;timestamp;P1;durP1;ratioP1;P2;durP2;ratioP2
215;SDS011;64590;48.81286795;9.14184224;2023-04-24T00:01:32;3.00;;;1.90;;
215;SDS011;64590;48.81286795;9.14184224;2023-04-24T00:03:59;5.03;;;2.00;;
215;SDS011;64590;48.81286795;9.14184224;2023-04-24T00:06:28;4.77;;;1.73;;
215;SDS011;64590;48.81286795;9.14184224;2023-04-24T00:08:58;4.70;;;1.80;;
215;SDS011;64590;48.81286795;9.14184224;2023-04-24T00:11:25;3.40;;;1.90;;
215;SDS011;64590;48.81286795;9.14184224;2023-04-24T00:13:51;2.97;;;1.70;;
215;SDS011;64590;48.81286795;9.14184224;2023-04-24T00:16:18;4.00;;;1.97;;
215;SDS011;64590;48.81286795;9.14184224;2023-04-24T00:18:45;3.60;;;1.77;;
215;SDS011;64590;48.81286795;9.14184224;2023-04-24T00:21:12;4.27;;;1.80;;
215;SDS011;64590;48.81286795;9.14184224;2023-04-24T00:23:41;5.70;;;1.77;;
215;SDS011;64590;48.81286795;9.14184224;2023-04-24T00:26:08;2.93;;;1.70;;
215;SDS011;64590;48.81286795;9.14184224;2023-04-24T00:28:35;4.53;;;1.90;;
215;SDS011;64590;48.81286795;9.14184224;2023-04-24T00:31:02;3.27;;;1.60;;
215;SDS011;64590;48.81286795;9.14184224;2023-04-24T00:33:29;5.60;;;2.03;;
215;SDS011;64590;48.81286795;9.14184224;2023-04-24T00:35:56;3.37;;;1.90;;
215;SDS011;64590;48.81286795;9.14184224;2023-04-24T00:38:23;3.53;;;1.80;;
215;SDS011;64590;48.81286795;9.14184224;2023-04-24T00:40:51;2.87;;;1.70;;
215;SDS011;64590;48.81286795;9.14184224;2023-04-24T00:43:19;4.30;;;1.70;;
215;SDS011;64590;48.81286795;9.14184224;2023-04-24T00:45:46;5.53;;;1.90;;
215;SDS011;64590;48.81286795;9.14184224;2023-04-24T00:48:12;2.90;;;1.80;;
215;SDS011;64590;48.81286795;9.14184224;2023-04-24T00:50:39;6.23;;;1.80;;
215;SDS011;64590;48.81286795;9.14184224;2023-04-24T00:53:06;4.30;;;1.70;;
215;SDS011;64590;48.81286795;9.14184224;2023-04-24T00:55:32;3.20;;;1.80;;
215;SDS011;64590;48.81286795;9.14184224;2023-04-24T00:58:00;5.53;;;1.80;;
215;SDS011;64590;48.81286795;9.14184224;2023-04-24T01:00:27;4.57;;;1.93;;
215;SDS011;64590;48.81286795;9.14184224;2023-04-24T01:02:53;3.17;;;1.60;;
215;SDS011;64590;48.81286795;9.14184224;2023-04-24T01:05:21;2.83;;;1.50;;
215;SDS011;64590;48.81286795;9.14184224;2023-04-24T01:07:48;4.50;;;1.60;;
215;SDS011;64590;48.81286795;9.14184224;2023-04-24T01:10:15;6.23;;;1.80;;
215;SDS011;64590;48.81286795;9.14184224;2023-04-24T01:12:44;5.47;;;1.90;;
215;SDS011;64590;48.81286795;9.14184224;2023-04-24T01:15:12;3.90;;;1.77;;
215;SDS011;64590;48.81286795;9.14184224;2023-04-24T01:17:41;4.33;;;1.80;;
215;SDS011;64590;48.81286795;9.14184224;2023-04-24T01:20:08;2.87;;;1.60;;
215;SDS011;64590;48.81286795;9.14184224;2023-04-24T01:22:37;4.03;;;1.80;;
215;SDS011;64590;48.81286795;9.14184224;2023-04-24T01:25:04;6.70;;;2.00;;
215;SDS011;64590;48.81286795;9.14184224;2023-04-24T01:27:31;4.37;;;1.90;;
215;SDS011;64590;48.81286795;9.14184224;2023-04-24T01:29:57;4.10;;;1.80;;
215;SDS011;64590;48.81286795;9.14184224;2023-04-24T01:32:24;2.83;;;1.70;;
215;SDS011;64590;48.81286795;9.14184224;2023-04-24T01:34:51;4.07;;;1.80;;
215;SDS011;64590;48.81286795;9.14184224;2023-04-24T01:37:18;2.87;;;1.70;;
215;SDS011;64590;48.81286795;9.14184224;2023-04-24T01:39:46;2.67;;;1.63;;
215;SDS011;64590;48.81286795;9.14184224;2023-04-24T01:42:12;4.10;;;1.70;;
215;SDS011;64590;48.81286795;9.14184224;2023-04-24T01:44:39;5.67;;;1.80;;
215;SDS011;64590;48.81286795;9.14184224;2023-04-24T01:47:06;6.13;;;1.80;;
215;SDS011;64590;48.81286795;9.14184224;2023-04-24T01:49:33;3.80;;;1.70;;
215;SDS011;64590;48.81286795;9.14184224;2023-04-24T01:52:00;3.50;;;1.80;;
215;SDS011;64590;48.81286795;9.14184224;2023-04-24T01:54:29;3.50;;;1.70;;
215;SDS011;64590;48.81286795;9.14184224;2023-04-24T01:56:57;3.30;;;1.70;;
215;SDS011;64590;48.81286795;9.14184224;2023-04-24T01:59:25;3.60;;;1.80;;
215;SDS011;64590;48.81286795;9.14184224;2023-04-24T02:01:54;3.50;;;1.70;;
215;SDS011;64590;48.81286795;9.14184224;2023-04-24T02:04:21;4.03;;;1.80;;
215;SDS011;64590;48.81286795;9.14184224;2023-04-24T02:06:47;7.10;;;1.83;;
215;SDS011;64590;48.81286795;9.14184224;2023-04-24T02:09:14;3.13;;;1.70;;
215;SDS011;64590;48.81286795;9.14184224;2023-04-24T02:11:41;3.20;;;1.77;;
215;SDS011;64590;48.81286795;9.14184224;2023-04-24T02:14:09;4.00;;;1.80;;
215;SDS011;64590;48.81286795;9.14184224;2023-04-24T02:16:38;4.37;;;1.70;;
215;SDS011;64590;48.81286795;9.14184224;2023-04-24T02:19:05;3.27;;;1.70;;
215;SDS011;64590;48.81286795;9.14184224;2023-04-24T02:21:32;5.47;;;1.90;;
215;SDS011;64590;48.81286795;9.14184224;2023-04-24T02:23:59;6.03;;;2.30;;
215;SDS011;64590;48.81286795;9.14184224;2023-04-24T02:26:26;4.67;;;2.00;;
215;SDS011;64590;48.81286795;9.14184224;2023-04-24T02:28:52;4.70;;;1.90;;
215;SDS011;64590;48.81286795;9.14184224;2023-04-24T02:31:21;3.63;;;1.77;;
215;SDS011;64590;48.81286795;9.14184224;2023-04-24T02:33:47;5.17;;;2.50;;
215;SDS011;64590;48.81286795;9.14184224;2023-04-24T02:36:15;3.37;;;1.80;;
215;SDS011;64590;48.81286795;9.14184224;2023-04-24T02:38:42;4.43;;;2.00;;
215;SDS011;64590;48.81286795;9.14184224;2023-04-24T02:41:08;5.43;;;2.00;;
215;SDS011;64590;48.81286795;9.14184224;2023-04-24T02:43:36;5.50;;;1.90;;
215;SDS011;64590;48.81286795;9.14184224;2023-04-24T02:46:03;5.00;;;1.83;;
215;SDS011;64590;48.81286795;9.14184224;2023-04-24T02:50:59;3.10;;;1.80;;
215;SDS011;64590;48.81286795;9.14184224;2023-04-24T02:53:25;7.93;;;2.00;;
215;SDS011;64590;48.81286795;9.14184224;2023-04-24T02:55:52;6.87;;;1.90;;
215;SDS011;64590;48.81286795;9.14184224;2023-04-24T02:58:19;4.20;;;1.80;;
215;SDS011;64590;48.81286795;9.14184224;2023-04-24T03:00:46;3.97;;;1.80;;
215;SDS011;64590;48.81286795;9.14184224;2023-04-24T03:03:13;4.00;;;1.80;;
215;SDS011;64590;48.81286795;9.14184224;2023-04-24T03:05:41;3.70;;;1.90;;
215;SDS011;64590;48.81286795;9.14184224;2023-04-24T03:08:08;3.83;;;1.90;;
215;SDS011;64590;48.81286795;9.14184224;2023-04-24T03:10:35;3.47;;;2.00;;
215;SDS011;64590;48.81286795;9.14184224;2023-04-24T03:13:02;3.53;;;1.80;;
215;SDS011;64590;48.81286795;9.14184224;2023-04-24T03:15:28;4.00;;;1.90;;
215;SDS011;64590;48.81286795;9.14184224;2023-04-24T03:17:55;6.13;;;1.90;;
215;SDS011;64590;48.81286795;9.14184224;2023-04-24T03:20:21;3.90;;;1.93;;
215;SDS011;64590;48.81286795;9.14184224;2023-04-24T03:22:49;5.33;;;2.00;;
215;SDS011;64590;48.81286795;9.14184224;2023-04-24T03:25:16;4.67;;;2.17;;
215;SDS011;64590;48.81286795;9.14184224;2023-04-24T03:27:43;5.30;;;2.00;;
215;SDS011;64590;48.81286795;9.14184224;2023-04-24T03:30:29;3.57;;;1.80;;
215;SDS011;64590;48.81286795;9.14184224;2023-04-24T03:32:58;4.93;;;2.00;;
215;SDS011;64590;48.81286795;9.14184224;2023-04-24T03:35:28;3.57;;;1.93;;
215;SDS011;64590;48.81286795;9.14184224;2023-04-24T03:37:59;3.20;;;1.77;;
215;SDS011;64590;48.81286795;9.14184224;2023-04-24T03:40:44;2.90;;;1.80;;
215;SDS011;64590;48.81286795;9.14184224;2023-04-24T03:43:25;5.40;;;1.97;;
215;SDS011;64590;48.81286795;9.14184224;2023-04-24T03:45:52;5.37;;;1.90;;
215;SDS011;64590;48.81286795;9.14184224;2023-04-24T03:48:19;4.07;;;2.13;;
215;SDS011;64590;48.81286795;9.14184224;2023-04-24T03:50:46;3.77;;;2.03;;
215;SDS011;64590;48.81286795;9.14184224;2023-04-24T03:53:14;4.30;;;2.10;;
215;SDS011;64590;48.81286795;9.14184224;2023-04-24T03:55:41;3.50;;;1.83;;
215;SDS011;64590;48.81286795;9.14184224;2023-04-24T03:58:09;4.53;;;1.80;;
215;SDS011;64590;48.81286795;9.14184224;2023-04-24T04:00:36;4.13;;;1.93;;
215;SDS011;64590;48.81286795;9.14184224;2023-04-24T04:03:32;7.70;;;1.90;;
215;SDS011;64590;48.81286795;9.14184224;2023-04-24T04:05:58;4.43;;;1.90;;
215;SDS011;64590;48.81286795;9.14184224;2023-04-24T04:08:27;3.20;;;1.80;;
215;SDS011;64590;48.81286795;9.14184224;2023-04-24T04:10:54;5.47;;;2.10;;
215;SDS011;64590;48.81286795;9.14184224;2023-04-24T04:13:22;5.60;;;2.47;;
215;SDS011;64590;48.81286795;9.14184224;2023-04-24T04:15:48;4.00;;;2.00;;
215;SDS011;64590;48.81286795;9.14184224;2023-04-24T04:18:15;2.80;;;1.60;;
215;SDS011;64590;48.81286795;9.14184224;2023-04-24T04:20:42;4.40;;;1.80;;
215;SDS011;64590;48.81286795;9.14184224;2023-04-24T04:23:11;5.57;;;1.60;;
215;SDS011;64590;48.81286795;9.14184224;2023-04-24T04:25:49;4.40;;;2.40;;
215;SDS011;64590;48.81286795;9.14184224;2023-04-24T04:28:19;4.03;;;2.17;;
215;SDS011;64590;48.81286795;9.14184224;2023-04-24T04:30:47;9.60;;;2.17;;
215;SDS011;64590;48.81286795;9.14184224;2023-04-24T04:33:14;4.40;;;2.20;;
215;SDS011;64590;48.81286795;9.14184224;2023-04-24T04:35:41;4.00;;;2.30;;
215;SDS011;64590;48.81286795;9.14184224;2023-04-24T04:38:08;4.20;;;2.50;;
215;SDS011;64590;48.81286795;9.14184224;2023-04-24T04:40:58;6.00;;;2.23;;
215;SDS011;64590;48.81286795;9.14184224;2023-04-24T04:43:28;3.90;;;2.40;;
215;SDS011;64590;48.81286795;9.14184224;2023-04-24T04:45:57;3.57;;;2.53;;
215;SDS011;64590;48.81286795;9.14184224;2023-04-24T04:48:40;6.10;;;2.60;;
215;SDS011;64590;48.81286795;9.14184224;2023-04-24T04:51:07;3.97;;;2.50;;
215;SDS011;64590;48.81286795;9.14184224;2023-04-24T04:53:33;4.10;;;2.40;;
215;SDS011;64590;48.81286795;9.14184224;2023-04-24T04:56:02;3.60;;;2.30;;
215;SDS011;64590;48.81286795;9.14184224;2023-04-24T04:58:35;4.07;;;2.37;;
215;SDS011;64590;48.81286795;9.14184224;2023-04-24T05:01:03;6.07;;;2.40;;
215;SDS011;64590;48.81286795;9.14184224;2023-04-24T05:03:35;4.30;;;2.30;;
215;SDS011;64590;48.81286795;9.14184224;2023-04-24T05:06:06;6.50;;;2.20;;
215;SDS011;64590;48.81286795;9.14184224;2023-04-24T05:08:35;3.97;;;2.50;;
215;SDS011;64590;48.81286795;9.14184224;2023-04-24T05:11:05;4.67;;;2.20;;
215;SDS011;64590;48.81286795;9.14184224;2023-04-24T05:13:32;5.77;;;2.10;;
215;SDS011;64590;48.81286795;9.14184224;2023-04-24T05:16:00;3.33;;;2.27;;
215;SDS011;64590;48.81286795;9.14184224;2023-04-24T05:18:28;3.97;;;2.50;;
215;SDS011;64590;48.81286795;9.14184224;2023-04-24T05:20:56;3.30;;;2.30;;
215;SDS011;64590;48.81286795;9.14184224;2023-04-24T05:23:23;4.67;;;2.90;;
215;SDS011;64590;48.81286795;9.14184224;2023-04-24T05:25:52;4.00;;;2.40;;
215;SDS011;64590;48.81286795;9.14184224;2023-04-24T05:28:21;3.50;;;2.30;;
215;SDS011;64590;48.81286795;9.14184224;2023-04-24T05:31:00;3.40;;;2.30;;
215;SDS011;64590;48.81286795;9.14184224;2023-04-24T05:33:27;4.20;;;2.50;;
215;SDS011;64590;48.81286795;9.14184224;2023-04-24T05:35:54;4.10;;;2.70;;
215;SDS011;64590;48.81286795;9.14184224;2023-04-24T05:38:21;3.57;;;2.37;;
215;SDS011;64590;48.81286795;9.14184224;2023-04-24T05:40:48;4.00;;;2.30;;
215;SDS011;64590;48.81286795;9.14184224;2023-04-24T05:43:14;4.20;;;2.40;;
215;SDS011;64590;48.81286795;9.14184224;2023-04-24T05:45:43;4.50;;;2.40;;
215;SDS011;64590;48.81286795;9.14184224;2023-04-24T05:48:09;3.83;;;2.53;;
215;SDS011;64590;48.81286795;9.14184224;2023-04-24T05:50:36;6.17;;;2.53;;
215;SDS011;64590;48.81286795;9.14184224;2023-04-24T05:53:03;3.90;;;2.43;;
215;SDS011;64590;48.81286795;9.14184224;2023-04-24T05:55:33;6.50;;;2.60;;
215;SDS011;64590;48.81286795;9.14184224;2023-04-24T05:58:01;3.60;;;2.50;;
215;SDS011;64590;48.81286795;9.14184224;2023-04-24T06:00:28;4.37;;;2.60;;
215;SDS011;64590;48.81286795;9.14184224;2023-04-24T06:03:03;4.60;;;2.70;;
215;SDS011;64590;48.81286795;9.14184224;2023-04-24T06:05:29;4.27;;;2.60;;
215;SDS011;64590;48.81286795;9.14184224;2023-04-24T06:07:56;3.90;;;2.77;;
215;SDS011;64590;48.81286795;9.14184224;2023-04-24T06:10:26;4.93;;;3.00;;
215;SDS011;64590;48.81286795;9.14184224;2023-04-24T06:12:52;5.87;;;3.17;;
215;SDS011;64590;48.81286795;9.14184224;2023-04-24T06:15:21;6.23;;;3.07;;
215;SDS011;64590;48.81286795;9.14184224;2023-04-24T06:18:07;4.13;;;2.70;;
215;SDS011;64590;48.81286795;9.14184224;2023-04-24T06:20:35;4.70;;;3.20;;
215;SDS011;64590;48.81286795;9.14184224;2023-04-24T06:23:02;4.40;;;2.80;;
215;SDS011;64590;48.81286795;9.14184224;2023-04-24T06:25:29;5.00;;;2.80;;
215;SDS011;64590;48.81286795;9.14184224;2023-04-24T06:27:55;3.60;;;2.50;;
215;SDS011;64590;48.81286795;9.14184224;2023-04-24T06:30:22;4.70;;;2.70;;
215;SDS011;64590;48.81286795;9.14184224;2023-04-24T06:32:49;4.93;;;3.10;;
215;SDS011;64590;48.81286795;9.14184224;2023-04-24T06:35:17;4.47;;;2.57;;
215;SDS011;64590;48.81286795;9.14184224;2023-04-24T06:37:43;5.37;;;2.90;;
215;SDS011;64590;48.81286795;9.14184224;2023-04-24T06:40:10;5.07;;;2.90;;
215;SDS011;64590;48.81286795;9.14184224;2023-04-24T06:42:37;5.17;;;2.83;;
215;SDS011;64590;48.81286795;9.14184224;2023-04-24T06:45:07;4.80;;;3.20;;
215;SDS011;64590;48.81286795;9.14184224;2023-04-24T06:47:34;5.73;;;3.00;;
215;SDS011;64590;48.81286795;9.14184224;2023-04-24T06:50:00;6.10;;;3.30;;
215;SDS011;64590;48.81286795;9.14184224;2023-04-24T06:52:28;4.50;;;3.10;;
215;SDS011;64590;48.81286795;9.14184224;2023-04-24T06:54:59;4.87;;;2.97;;
215;SDS011;64590;48.81286795;9.14184224;2023-04-24T06:57:26;5.90;;;3.00;;
215;SDS011;64590;48.81286795;9.14184224;2023-04-24T06:59:53;6.53;;;3.33;;
215;SDS011;64590;48.81286795;9.14184224;2023-04-24T07:02:19;5.60;;;3.17;;
215;SDS011;64590;48.81286795;9.14184224;2023-04-24T07:04:46;5.10;;;3.37;;
215;SDS011;64590;48.81286795;9.14184224;2023-04-24T07:07:13;6.50;;;3.93;;
215;SDS011;64590;48.81286795;9.14184224;2023-04-24T07:09:42;7.23;;;3.83;;
215;SDS011;64590;48.81286795;9.14184224;2023-04-24T07:12:10;5.00;;;3.60;;
215;SDS011;64590;48.81286795;9.14184224;2023-04-24T07:14:37;6.20;;;3.50;;
215;SDS011;64590;48.81286795;9.14184224;2023-04-24T07:17:04;7.53;;;3.30;;
215;SDS011;64590;48.81286795;9.14184224;2023-04-24T07:19:31;5.00;;;3.40;;
215;SDS011;64590;48.81286795;9.14184224;2023-04-24T07:24:52;5.00;;;3.00;;
215;SDS011;64590;48.81286795;9.14184224;2023-04-24T07:27:19;5.00;;;2.93;;
215;SDS011;64590;48.81286795;9.14184224;2023-04-24T07:29:45;5.97;;;3.40;;
215;SDS011;64590;48.81286795;9.14184224;2023-04-24T07:32:12;5.00;;;3.30;;
215;SDS011;64590;48.81286795;9.14184224;2023-04-24T07:34:39;9.30;;;3.43;;
215;SDS011;64590;48.81286795;9.14184224;2023-04-24T07:37:05;5.53;;;3.00;;
215;SDS011;64590;48.81286795;9.14184224;2023-04-24T07:39:32;5.10;;;2.97;;
215;SDS011;64590;48.81286795;9.14184224;2023-04-24T07:42:00;5.40;;;2.70;;
215;SDS011;64590;48.81286795;9.14184224;2023-04-24T07:44:26;4.17;;;2.80;;
215;SDS011;64590;48.81286795;9.14184224;2023-04-24T07:46:53;5.83;;;2.70;;
215;SDS011;64590;48.81286795;9.14184224;2023-04-24T07:49:19;5.13;;;3.00;;
215;SDS011;64590;48.81286795;9.14184224;2023-04-24T07:51:46;8.73;;;2.83;;
215;SDS011;64590;48.81286795;9.14184224;2023-04-24T07:54:13;9.70;;;2.90;;
215;SDS011;64590;48.81286795;9.14184224;2023-04-24T07:56:40;8.80;;;2.80;;
215;SDS011;64590;48.81286795;9.14184224;2023-04-24T07:59:09;5.10;;;2.80;;
215;SDS011;64590;48.81286795;9.14184224;2023-04-24T08:01:36;6.18;;;2.80;;
215;SDS011;64590;48.81286795;9.14184224;2023-04-24T08:04:03;6.30;;;3.07;;
215;SDS011;64590;48.81286795;9.14184224;2023-04-24T08:06:29;4.77;;;2.60;;
215;SDS011;64590;48.81286795;9.14184224;2023-04-24T08:08:57;4.97;;;2.70;;
215;SDS011;64590;48.81286795;9.14184224;2023-04-24T08:11:24;4.60;;;2.70;;
215;SDS011;64590;48.81286795;9.14184224;2023-04-24T08:13:51;5.40;;;2.70;;
215;SDS011;64590;48.81286795;9.14184224;2023-04-24T08:16:19;5.10;;;2.70;;
215;SDS011;64590;48.81286795;9.14184224;2023-04-24T08:18:46;5.50;;;2.73;;
215;SDS011;64590;48.81286795;9.14184224;2023-04-24T08:21:12;4.83;;;2.67;;
215;SDS011;64590;48.81286795;9.14184224;2023-04-24T08:23:42;5.53;;;2.87;;
215;SDS011;64590;48.81286795;9.14184224;2023-04-24T08:26:08;9.03;;;2.77;;
215;SDS011;64590;48.81286795;9.14184224;2023-04-24T08:28:36;4.27;;;2.60;;
215;SDS011;64590;48.81286795;9.14184224;2023-04-24T08:31:03;5.83;;;2.87;;
215;SDS011;64590;48.81286795;9.14184224;2023-04-24T08:33:31;4.53;;;2.87;;
215;SDS011;64590;48.81286795;9.14184224;2023-04-24T08:35:59;6.63;;;2.80;;
215;SDS011;64590;48.81286795;9.14184224;2023-04-24T08:38:26;5.57;;;3.20;;
215;SDS011;64590;48.81286795;9.14184224;2023-04-24T08:40:53;5.87;;;3.07;;
215;SDS011;64590;48.81286795;9.14184224;2023-04-24T08:43:20;6.37;;;3.30;;
215;SDS011;64590;48.81286795;9.14184224;2023-04-24T08:45:48;7.23;;;2.70;;
215;SDS011;64590;48.81286795;9.14184224;2023-04-24T08:48:15;4.23;;;2.97;;
215;SDS011;64590;48.81286795;9.14184224;2023-04-24T08:50:44;4.17;;;2.77;;
215;SDS011;64590;48.81286795;9.14184224;2023-04-24T08:53:11;4.80;;;2.70;;
215;SDS011;64590;48.81286795;9.14184224;2023-04-24T08:55:37;4.60;;;2.90;;
215;SDS011;64590;48.81286795;9.14184224;2023-04-24T08:58:04;6.17;;;2.87;;
215;SDS011;64590;48.81286795;9.14184224;2023-04-24T09:00:31;4.80;;;2.80;;
215;SDS011;64590;48.81286795;9.14184224;2023-04-24T09:03:00;3.30;;;2.40;;
215;SDS011;64590;48.81286795;9.14184224;2023-04-24T09:05:27;5.63;;;2.77;;
215;SDS011;64590;48.81286795;9.14184224;2023-04-24T09:07:56;5.30;;;3.10;;
215;SDS011;64590;48.81286795;9.14184224;2023-04-24T09:10:23;5.33;;;3.10;;
215;SDS011;64590;48.81286795;9.14184224;2023-04-24T09:12:51;4.37;;;2.70;;
215;SDS011;64590;48.81286795;9.14184224;2023-04-24T09:15:18;5.13;;;2.90;;
215;SDS011;64590;48.81286795;9.14184224;2023-04-24T09:17:45;5.90;;;2.90;;
215;SDS011;64590;48.81286795;9.14184224;2023-04-24T09:20:12;4.57;;;2.80;;
215;SDS011;64590;48.81286795;9.14184224;2023-04-24T09:22:38;5.27;;;3.00;;
215;SDS011;64590;48.81286795;9.14184224;2023-04-24T09:25:07;4.60;;;2.90;;
215;SDS011;64590;48.81286795;9.14184224;2023-04-24T09:27:36;4.30;;;2.60;;
215;SDS011;64590;48.81286795;9.14184224;2023-04-24T09:30:08;6.47;;;2.93;;
215;SDS011;64590;48.81286795;9.14184224;2023-04-24T09:32:35;5.70;;;2.80;;
215;SDS011;64590;48.81286795;9.14184224;2023-04-24T09:35:06;4.53;;;2.53;;
215;SDS011;64590;48.81286795;9.14184224;2023-04-24T09:37:37;5.67;;;2.80;;
215;SDS011;64590;48.81286795;9.14184224;2023-04-24T09:40:10;4.87;;;2.97;;
215;SDS011;64590;48.81286795;9.14184224;2023-04-24T09:42:38;5.07;;;3.00;;
215;SDS011;64590;48.81286795;9.14184224;2023-04-24T09:45:08;7.93;;;3.80;;
215;SDS011;64590;48.81286795;9.14184224;2023-04-24T09:47:35;8.90;;;3.30;;
215;SDS011;64590;48.81286795;9.14184224;2023-04-24T09:50:08;6.77;;;2.90;;
215;SDS011;64590;48.81286795;9.14184224;2023-04-24T09:52:36;4.10;;;2.63;;
215;SDS011;64590;48.81286795;9.14184224;2023-04-24T09:55:11;4.40;;;2.93;;
215;SDS011;64590;48.81286795;9.14184224;2023-04-24T09:57:46;4.13;;;2.60;;
215;SDS011;64590;48.81286795;9.14184224;2023-04-24T10:00:17;4.13;;;2.50;;
215;SDS011;64590;48.81286795;9.14184224;2023-04-24T10:02:49;5.73;;;2.70;;
215;SDS011;64590;48.81286795;9.14184224;2023-04-24T10:05:16;4.50;;;2.80;;
215;SDS011;64590;48.81286795;9.14184224;2023-04-24T10:07:43;4.10;;;2.70;;
215;SDS011;64590;48.81286795;9.14184224;2023-04-24T10:10:10;5.17;;;2.77;;
215;SDS011;64590;48.81286795;9.14184224;2023-04-24T10:12:38;5.20;;;2.80;;
215;SDS011;64590;48.81286795;9.14184224;2023-04-24T10:15:06;6.07;;;2.70;;
215;SDS011;64590;48.81286795;9.14184224;2023-04-24T10:17:34;3.43;;;2.47;;
215;SDS011;64590;48.81286795;9.14184224;2023-04-24T10:20:02;4.80;;;2.40;;
215;SDS011;64590;48.81286795;9.14184224;2023-04-24T10:22:29;3.97;;;2.40;;
215;SDS011;64590;48.81286795;9.14184224;2023-04-24T10:24:56;4.47;;;2.47;;
215;SDS011;64590;48.81286795;9.14184224;2023-04-24T10:27:26;4.63;;;2.23;;
215;SDS011;64590;48.81286795;9.14184224;2023-04-24T10:29:53;4.60;;;2.40;;
215;SDS011;64590;48.81286795;9.14184224;2023-04-24T10:32:21;7.20;;;2.50;;
215;SDS011;64590;48.81286795;9.14184224;2023-04-24T10:34:47;7.10;;;3.00;;
215;SDS011;64590;48.81286795;9.14184224;2023-04-24T10:37:14;4.10;;;2.60;;
215;SDS011;64590;48.81286795;9.14184224;2023-04-24T10:39:41;4.00;;;2.40;;
215;SDS011;64590;48.81286795;9.14184224;2023-04-24T10:42:13;3.80;;;2.73;;
215;SDS011;64590;48.81286795;9.14184224;2023-04-24T10:44:42;5.10;;;3.00;;
215;SDS011;64590;48.81286795;9.14184224;2023-04-24T10:47:12;4.80;;;2.87;;
215;SDS011;64590;48.81286795;9.14184224;2023-04-24T10:49:39;6.93;;;2.80;;
215;SDS011;64590;48.81286795;9.14184224;2023-04-24T10:52:06;5.20;;;2.97;;
215;SDS011;64590;48.81286795;9.14184224;2023-04-24T10:54:35;4.20;;;2.37;;
215;SDS011;64590;48.81286795;9.14184224;2023-04-24T10:57:26;5.53;;;3.07;;
215;SDS011;64590;48.81286795;9.14184224;2023-04-24T11:02:45;5.23;;;2.60;;
215;SDS011;64590;48.81286795;9.14184224;2023-04-24T11:05:15;4.00;;;2.67;;
215;SDS011;64590;48.81286795;9.14184224;2023-04-24T11:10:37;4.60;;;2.70;;
215;SDS011;64590;48.81286795;9.14184224;2023-04-24T11:13:05;3.93;;;2.40;;
215;SDS011;64590;48.81286795;9.14184224;2023-04-24T11:15:32;4.83;;;3.00;;
215;SDS011;64590;48.81286795;9.14184224;2023-04-24T11:17:59;4.20;;;2.73;;
215;SDS011;64590;48.81286795;9.14184224;2023-04-24T11:20:26;4.63;;;2.63;;
215;SDS011;64590;48.81286795;9.14184224;2023-04-24T11:22:53;4.40;;;2.60;;
215;SDS011;64590;48.81286795;9.14184224;2023-04-24T11:25:20;4.60;;;2.87;;
215;SDS011;64590;48.81286795;9.14184224;2023-04-24T11:27:47;5.30;;;2.80;;
215;SDS011;64590;48.81286795;9.14184224;2023-04-24T11:30:17;5.77;;;2.93;;
215;SDS011;64590;48.81286795;9.14184224;2023-04-24T11:32:48;4.83;;;2.80;;
215;SDS011;64590;48.81286795;9.14184224;2023-04-24T11:35:17;4.50;;;3.00;;
215;SDS011;64590;48.81286795;9.14184224;2023-04-24T11:37:46;7.40;;;2.93;;
215;SDS011;64590;48.81286795;9.14184224;2023-04-24T11:40:15;4.20;;;2.40;;
215;SDS011;64590;48.81286795;9.14184224;2023-04-24T11:42:43;4.50;;;2.97;;
215;SDS011;64590;48.81286795;9.14184224;2023-04-24T11:45:11;5.20;;;2.57;;
215;SDS011;64590;48.81286795;9.14184224;2023-04-24T11:47:39;4.23;;;2.70;;
215;SDS011;64590;48.81286795;9.14184224;2023-04-24T11:50:09;4.27;;;2.60;;
215;SDS011;64590;48.81286795;9.14184224;2023-04-24T11:52:37;6.30;;;2.90;;
215;SDS011;64590;48.81286795;9.14184224;2023-04-24T11:55:06;7.87;;;3.17;;
215;SDS011;64590;48.81286795;9.14184224;2023-04-24T11:57:34;4.20;;;2.70;;
215;SDS011;64590;48.81286795;9.14184224;2023-04-24T12:00:02;4.80;;;2.90;;
215;SDS011;64590;48.81286795;9.14184224;2023-04-24T12:02:37;5.97;;;2.73;;
215;SDS011;64590;48.81286795;9.14184224;2023-04-24T12:05:04;4.90;;;2.93;;
215;SDS011;64590;48.81286795;9.14184224;2023-04-24T12:07:36;5.67;;;2.70;;
215;SDS011;64590;48.81286795;9.14184224;2023-04-24T12:10:08;4.10;;;3.10;;
215;SDS011;64590;48.81286795;9.14184224;2023-04-24T12:12:35;4.70;;;2.93;;
215;SDS011;64590;48.81286795;9.14184224;2023-04-24T12:15:06;4.40;;;3.13;;
215;SDS011;64590;48.81286795;9.14184224;2023-04-24T12:17:34;4.70;;;3.07;;
215;SDS011;64590;48.81286795;9.14184224;2023-04-24T12:20:02;5.10;;;3.07;;
215;SDS011;64590;48.81286795;9.14184224;2023-04-24T12:22:45;5.43;;;2.93;;
215;SDS011;64590;48.81286795;9.14184224;2023-04-24T12:25:13;5.30;;;2.80;;
215;SDS011;64590;48.81286795;9.14184224;2023-04-24T12:27:40;5.13;;;2.90;;
215;SDS011;64590;48.81286795;9.14184224;2023-04-24T12:30:10;3.60;;;2.50;;
215;SDS011;64590;48.81286795;9.14184224;2023-04-24T12:32:40;8.03;;;2.90;;
215;SDS011;64590;48.81286795;9.14184224;2023-04-24T12:35:08;5.37;;;2.90;;
215;SDS011;64590;48.81286795;9.14184224;2023-04-24T12:37:35;7.50;;;3.10;;
215;SDS011;64590;48.81286795;9.14184224;2023-04-24T12:40:04;5.83;;;2.63;;
215;SDS011;64590;48.81286795;9.14184224;2023-04-24T12:42:33;4.90;;;2.70;;
215;SDS011;64590;48.81286795;9.14184224;2023-04-24T12:45:01;4.13;;;2.83;;
215;SDS011;64590;48.81286795;9.14184224;2023-04-24T12:47:30;4.80;;;3.10;;
215;SDS011;64590;48.81286795;9.14184224;2023-04-24T12:49:58;4.87;;;2.93;;
215;SDS011;64590;48.81286795;9.14184224;2023-04-24T12:52:26;4.93;;;2.60;;
215;SDS011;64590;48.81286795;9.14184224;2023-04-24T12:54:55;6.07;;;3.27;;
215;SDS011;64590;48.81286795;9.14184224;2023-04-24T12:57:24;4.60;;;2.77;;
215;SDS011;64590;48.81286795;9.14184224;2023-04-24T12:59:53;4.90;;;3.07;;
215;SDS011;64590;48.81286795;9.14184224;2023-04-24T13:02:21;4.80;;;2.90;;
215;SDS011;64590;48.81286795;9.14184224;2023-04-24T13:04:48;3.90;;;2.97;;
215;SDS011;64590;48.81286795;9.14184224;2023-04-24T13:07:15;3.67;;;2.60;;
215;SDS011;64590;48.81286795;9.14184224;2023-04-24T13:09:42;4.67;;;2.70;;
215;SDS011;64590;48.81286795;9.14184224;2023-04-24T13:12:10;4.63;;;2.90;;
215;SDS011;64590;48.81286795;9.14184224;2023-04-24T13:14:38;5.23;;;2.80;;
215;SDS011;64590;48.81286795;9.14184224;2023-04-24T13:17:05;3.97;;;2.77;;
215;SDS011;64590;48.81286795;9.14184224;2023-04-24T13:19:35;5.53;;;3.37;;
215;SDS011;64590;48.81286795;9.14184224;2023-04-24T13:22:02;5.40;;;3.63;;
215;SDS011;64590;48.81286795;9.14184224;2023-04-24T13:24:29;5.77;;;3.63;;
215;SDS011;64590;48.81286795;9.14184224;2023-04-24T13:26:56;4.50;;;3.27;;
215;SDS011;64590;48.81286795;9.14184224;2023-04-24T13:29:23;4.53;;;3.33;;